createdAt,value
2019-05-30T00:00:46.738Z,55.66
2019-05-30T00:01:46.718Z,55.87
2019-05-30T00:02:46.728Z,55.66
2019-05-30T00:03:46.716Z,55.87
2019-05-30T00:04:58.181Z,55.49
2019-05-30T00:05:46.684Z,55.49
2019-05-30T00:06:46.663Z,56.00
2019-05-30T00:07:46.665Z,55.79
2019-05-30T00:08:46.654Z,55.90
2019-05-30T00:09:46.671Z,56.00
2019-05-30T00:10:46.620Z,55.59
2019-05-30T00:11:46.626Z,55.90
2019-05-30T00:12:46.606Z,56.00
2019-05-30T00:13:46.582Z,56.30
2019-05-30T00:14:46.582Z,56.10
2019-05-30T00:15:46.572Z,56.51
2019-05-30T00:16:46.553Z,56.00
2019-05-30T00:17:46.564Z,55.69
2019-05-30T00:18:46.545Z,56.10
2019-05-30T00:19:46.554Z,56.20
2019-05-30T00:20:46.524Z,56.51
2019-05-30T00:21:46.513Z,56.51
2019-05-30T00:22:46.503Z,56.41
2019-05-30T00:23:46.496Z,56.51
2019-05-30T00:24:46.487Z,56.82
2019-05-30T00:25:46.473Z,56.41
2019-05-30T00:26:46.465Z,56.00
2019-05-30T00:27:46.455Z,55.59
2019-05-30T00:28:46.423Z,55.69
2019-05-30T00:29:46.464Z,55.59
2019-05-30T00:30:46.413Z,55.79
2019-05-30T00:31:46.407Z,55.59
2019-05-30T00:32:46.395Z,55.79
2019-05-30T00:33:46.375Z,55.72
2019-05-30T00:34:46.362Z,56.23
2019-05-30T00:35:57.663Z,56.02
2019-05-30T00:36:46.361Z,56.43
2019-05-30T00:37:46.343Z,56.43
2019-05-30T00:38:46.323Z,56.23
2019-05-30T00:39:46.319Z,56.64
2019-05-30T00:40:46.326Z,56.34
2019-05-30T00:41:46.303Z,56.23
2019-05-30T00:42:46.283Z,56.74
2019-05-30T00:43:46.282Z,56.74
2019-05-30T00:44:46.265Z,56.64
2019-05-30T00:45:46.250Z,56.54
2019-05-30T00:46:46.253Z,56.85
2019-05-30T00:47:46.246Z,56.43
2019-05-30T00:48:46.222Z,56.85
2019-05-30T00:49:46.211Z,56.85
2019-05-30T00:50:46.191Z,56.02
2019-05-30T00:51:46.198Z,56.23
2019-05-30T00:52:46.182Z,56.23
2019-05-30T00:53:46.164Z,56.43
2019-05-30T00:54:46.153Z,56.54
2019-05-30T00:55:46.153Z,56.64
2019-05-30T00:56:46.144Z,56.23
2019-05-30T00:57:46.112Z,56.15
2019-05-30T00:58:46.115Z,56.46
2019-05-30T00:59:46.114Z,56.54
2019-05-30T01:00:46.097Z,56.36
2019-05-30T01:01:46.083Z,56.46
2019-05-30T01:02:46.105Z,56.15
2019-05-30T01:03:46.064Z,56.46
2019-05-30T01:04:46.053Z,56.36
2019-05-30T01:05:46.043Z,56.46
2019-05-30T01:06:59.104Z,56.77
2019-05-30T01:07:46.030Z,56.36
2019-05-30T01:08:45.997Z,56.77
2019-05-30T01:09:46.004Z,56.98
2019-05-30T01:10:45.991Z,57.18
2019-05-30T01:11:45.998Z,56.77
2019-05-30T01:12:45.960Z,56.67
2019-05-30T01:13:46.023Z,56.98
2019-05-30T01:14:45.949Z,56.77
2019-05-30T01:15:45.931Z,57.49
2019-05-30T01:16:45.929Z,57.49
2019-05-30T01:17:45.921Z,57.62
2019-05-30T01:18:45.898Z,57.72
2019-05-30T01:19:45.878Z,57.51
2019-05-30T01:20:45.884Z,57.62
2019-05-30T01:21:45.881Z,57.72
2019-05-30T01:22:45.850Z,58.34
2019-05-30T01:23:45.858Z,58.03
2019-05-30T01:24:45.827Z,58.23
2019-05-30T01:25:45.829Z,58.13
2019-05-30T01:26:45.817Z,58.03
2019-05-30T01:27:45.800Z,58.44
2019-05-30T01:29:45.879Z,58.23
2019-05-30T01:30:58.874Z,58.23
2019-05-30T01:31:46.749Z,58.34
2019-05-30T01:32:45.750Z,58.34
2019-05-30T01:33:45.770Z,58.44
2019-05-30T01:34:45.731Z,57.72
2019-05-30T01:35:45.722Z,57.82
2019-05-30T01:36:45.714Z,58.03
2019-05-30T01:37:55.917Z,58.13
2019-05-30T01:38:45.687Z,58.23
2019-05-30T01:39:45.716Z,58.44
2019-05-30T01:40:45.668Z,58.13
2019-05-30T01:41:45.648Z,57.82
2019-05-30T01:42:45.639Z,58.23
2019-05-30T01:43:45.629Z,58.03
2019-05-30T01:44:45.606Z,58.44
2019-05-30T01:45:45.616Z,58.75
2019-05-30T01:46:45.600Z,58.64
2019-05-30T01:47:45.577Z,58.85
2019-05-30T01:48:45.566Z,58.54
2019-05-30T01:49:45.558Z,58.23
2019-05-30T01:50:45.568Z,58.41
2019-05-30T01:51:45.559Z,57.72
2019-05-30T01:52:45.526Z,58.13
2019-05-30T01:53:45.527Z,58.13
2019-05-30T01:54:45.550Z,58.23
2019-05-30T01:55:48.557Z,58.23
2019-05-30T01:56:45.488Z,58.03
2019-05-30T01:57:45.506Z,57.93
2019-05-30T01:58:45.468Z,57.82
2019-05-30T02:00:45.457Z,58.23
2019-05-30T02:01:45.437Z,58.03
2019-05-30T02:02:45.429Z,58.54
2019-05-30T02:03:45.409Z,58.44
2019-05-30T02:04:45.407Z,58.23
2019-05-30T02:05:45.388Z,57.93
2019-05-30T02:06:45.378Z,58.23
2019-05-30T02:07:45.368Z,58.13
2019-05-30T02:08:56.035Z,57.51
2019-05-30T02:09:45.339Z,57.41
2019-05-30T02:10:45.350Z,57.72
2019-05-30T02:11:45.333Z,57.62
2019-05-30T02:12:45.321Z,57.49
2019-05-30T02:13:45.315Z,57.08
2019-05-30T02:14:45.297Z,57.59
2019-05-30T02:15:45.282Z,57.39
2019-05-30T02:16:45.290Z,56.90
2019-05-30T02:17:45.262Z,57.21
2019-05-30T02:18:45.240Z,57.41
2019-05-30T02:19:45.231Z,57.41
2019-05-30T02:20:45.241Z,57.70
2019-05-30T02:21:45.220Z,56.98
2019-05-30T02:22:45.210Z,56.77
2019-05-30T02:23:45.190Z,57.18
2019-05-30T02:24:45.181Z,56.77
2019-05-30T02:25:45.170Z,56.87
2019-05-30T02:26:45.164Z,57.18
2019-05-30T02:27:45.164Z,57.08
2019-05-30T02:28:45.144Z,56.98
2019-05-30T02:29:45.132Z,57.08
2019-05-30T02:31:45.113Z,57.18
2019-05-30T02:32:45.121Z,56.98
2019-05-30T02:33:45.089Z,56.67
2019-05-30T02:34:45.071Z,56.56
2019-05-30T02:35:45.060Z,56.36
2019-05-30T02:36:45.065Z,56.26
2019-05-30T02:37:45.083Z,56.43
2019-05-30T02:38:45.052Z,56.54
2019-05-30T02:40:00.105Z,56.23
2019-05-30T02:40:46.003Z,56.74
2019-05-30T02:41:45.001Z,56.23
2019-05-30T02:42:44.993Z,56.85
2019-05-30T02:43:44.984Z,56.64
2019-05-30T02:44:44.974Z,56.43
2019-05-30T02:45:44.954Z,56.43
2019-05-30T02:46:44.946Z,56.34
2019-05-30T02:47:44.931Z,56.23
2019-05-30T02:48:58.020Z,56.41
2019-05-30T02:49:45.915Z,55.69
2019-05-30T02:50:44.915Z,55.79
2019-05-30T02:51:44.884Z,55.69
2019-05-30T02:52:44.884Z,55.28
2019-05-30T02:53:44.865Z,54.77
2019-05-30T02:54:44.865Z,55.08
2019-05-30T02:55:44.861Z,55.18
2019-05-30T02:56:44.833Z,55.08
2019-05-30T02:57:44.827Z,55.08
2019-05-30T02:58:44.820Z,54.46
2019-05-30T02:59:44.807Z,55.08
2019-05-30T03:00:44.787Z,54.97
2019-05-30T03:02:44.787Z,54.36
2019-05-30T03:03:44.781Z,54.87
2019-05-30T03:04:44.818Z,54.53
2019-05-30T03:05:44.761Z,54.64
2019-05-30T03:06:44.727Z,54.23
2019-05-30T03:07:44.724Z,54.13
2019-05-30T03:08:44.705Z,54.53
2019-05-30T03:09:44.738Z,54.44
2019-05-30T03:10:55.352Z,53.82
2019-05-30T03:11:44.694Z,53.41
2019-05-30T03:13:44.653Z,53.31
2019-05-30T03:14:44.650Z,53.20
2019-05-30T03:15:44.656Z,53.49
2019-05-30T03:16:44.621Z,53.28
2019-05-30T03:17:44.639Z,53.59
2019-05-30T03:18:44.613Z,53.69
2019-05-30T03:19:44.607Z,53.18
2019-05-30T03:20:44.595Z,52.47
2019-05-30T03:21:44.563Z,52.36
2019-05-30T03:22:44.565Z,52.44
2019-05-30T03:23:44.554Z,52.23
2019-05-30T03:24:44.531Z,51.72
2019-05-30T03:25:44.546Z,52.23
2019-05-30T03:26:44.536Z,51.62
2019-05-30T03:27:44.515Z,51.72
2019-05-30T03:28:44.500Z,51.82
2019-05-30T03:29:44.497Z,51.42
2019-05-30T03:30:44.501Z,51.93
2019-05-30T03:31:44.478Z,52.42
2019-05-30T03:33:44.461Z,51.59
2019-05-30T03:41:56.468Z,51.26
2019-05-30T04:04:44.122Z,47.61
2019-05-30T04:11:44.034Z,45.76
2019-05-30T04:12:55.899Z,46.26
2019-05-30T04:34:43.792Z,43.88
2019-05-30T04:35:43.803Z,43.88
2019-05-30T04:43:54.335Z,43.57
2019-05-30T05:02:43.521Z,43.23
2019-05-30T05:05:43.450Z,43.10
2019-05-30T05:06:43.457Z,44.02
2019-05-30T05:14:53.853Z,43.10
2019-05-30T05:36:43.130Z,41.41
2019-05-30T05:37:43.119Z,41.82
2019-05-30T05:45:53.083Z,39.56
2019-05-30T06:07:42.804Z,40.44
2019-05-30T06:08:42.793Z,41.03
2019-05-30T06:15:42.717Z,38.37
2019-05-30T06:16:55.606Z,38.47
2019-05-30T06:19:46.425Z,37.46
2019-05-30T06:20:42.662Z,38.37
2019-05-30T06:21:53.473Z,37.87
2019-05-30T06:22:43.627Z,37.87
2019-05-30T06:23:45.592Z,38.37
2019-05-30T06:24:42.725Z,36.44
2019-05-30T06:25:42.590Z,35.12
2019-05-30T06:26:42.595Z,37.05
2019-05-30T06:27:42.581Z,37.15
2019-05-30T06:28:42.572Z,37.66
2019-05-30T06:29:42.563Z,38.27
2019-05-30T06:30:42.563Z,37.34
2019-05-30T06:31:42.551Z,37.24
2019-05-30T06:32:42.533Z,37.85
2019-05-30T06:33:42.511Z,37.74
2019-05-30T06:34:42.514Z,36.43
2019-05-30T06:35:42.494Z,37.22
2019-05-30T06:36:42.484Z,37.02
2019-05-30T06:38:42.451Z,37.02
2019-05-30T06:39:42.475Z,35.50
2019-05-30T06:40:42.440Z,34.89
2019-05-30T06:41:42.435Z,34.38
2019-05-30T06:42:42.414Z,34.47
2019-05-30T06:43:42.416Z,34.56
2019-05-30T06:44:42.393Z,35.38
2019-05-30T06:45:42.398Z,34.26
2019-05-30T06:47:52.508Z,31.83
2019-05-30T06:48:42.358Z,33.25
2019-05-30T06:49:42.347Z,34.06
2019-05-30T06:50:42.340Z,34.77
2019-05-30T06:51:42.317Z,33.65
2019-05-30T06:52:42.306Z,33.64
2019-05-30T06:53:42.307Z,33.23
2019-05-30T06:54:42.289Z,32.53
2019-05-30T06:55:42.298Z,33.23
2019-05-30T06:56:44.679Z,33.74
2019-05-30T06:57:42.247Z,33.84
2019-05-30T06:58:48.680Z,33.72
2019-05-30T06:59:43.240Z,34.64
2019-05-30T07:00:42.217Z,34.64
2019-05-30T07:01:42.232Z,33.83
2019-05-30T07:02:42.236Z,33.72
2019-05-30T07:03:42.319Z,34.23
2019-05-30T07:04:51.458Z,32.10
2019-05-30T07:05:43.555Z,32.41
2019-05-30T07:06:42.469Z,32.51
2019-05-30T07:07:42.228Z,34.03
2019-05-30T07:08:42.660Z,34.11
2019-05-30T07:09:42.150Z,32.59
2019-05-30T07:10:42.121Z,32.90
2019-05-30T07:11:42.108Z,34.42
2019-05-30T07:12:42.098Z,33.40
2019-05-30T07:13:42.087Z,33.30
2019-05-30T07:14:42.091Z,33.20
2019-05-30T07:15:42.075Z,32.09
2019-05-30T07:16:42.062Z,33.40
2019-05-30T07:18:53.153Z,33.81
2019-05-30T07:19:42.033Z,31.58
2019-05-30T07:20:42.012Z,31.77
2019-05-30T07:21:42.041Z,30.27
2019-05-30T07:22:41.993Z,30.57
2019-05-30T07:23:41.971Z,32.78
2019-05-30T07:24:41.963Z,31.46
2019-05-30T07:25:41.953Z,31.87
2019-05-30T07:26:41.942Z,32.78
2019-05-30T07:27:41.943Z,32.68
2019-05-30T07:28:41.935Z,34.28
2019-05-30T07:29:41.910Z,32.26
2019-05-30T07:30:41.904Z,31.45
2019-05-30T07:31:41.895Z,33.17
2019-05-30T07:32:41.882Z,31.96
2019-05-30T07:33:41.927Z,33.47
2019-05-30T07:34:45.585Z,31.96
2019-05-30T07:35:41.853Z,32.06
2019-05-30T07:36:41.834Z,30.22
2019-05-30T07:37:41.835Z,29.11
2019-05-30T07:38:41.816Z,32.35
2019-05-30T07:40:41.786Z,31.64
2019-05-30T07:41:41.792Z,32.04
2019-05-30T07:42:41.764Z,30.43
2019-05-30T07:43:41.803Z,31.84
2019-05-30T07:44:41.756Z,32.64
2019-05-30T07:45:44.843Z,31.54
2019-05-30T07:46:42.738Z,30.93
2019-05-30T07:47:41.730Z,30.93
2019-05-30T07:48:41.712Z,32.55
2019-05-30T07:49:51.645Z,30.32
2019-05-30T07:50:41.691Z,30.93
2019-05-30T07:51:41.742Z,32.43
2019-05-30T07:52:41.668Z,30.62
2019-05-30T07:53:41.660Z,29.30
2019-05-30T07:54:41.673Z,29.60
2019-05-30T07:55:41.628Z,30.73
2019-05-30T07:56:41.618Z,30.11
2019-05-30T07:57:41.919Z,31.82
2019-05-30T07:58:41.598Z,31.82
2019-05-30T07:59:41.612Z,32.03
2019-05-30T08:00:41.603Z,31.81
2019-05-30T08:01:41.571Z,32.21
2019-05-30T08:02:41.562Z,29.10
2019-05-30T08:03:41.551Z,28.69
2019-05-30T08:04:41.567Z,30.82
2019-05-30T08:05:41.531Z,31.73
2019-05-30T08:06:41.521Z,30.00
2019-05-30T08:07:41.514Z,30.40
2019-05-30T08:08:41.500Z,29.89
2019-05-30T08:09:41.489Z,29.89
2019-05-30T08:10:41.513Z,28.48
2019-05-30T08:11:41.451Z,29.08
2019-05-30T08:12:41.451Z,28.08
2019-05-30T08:13:41.444Z,28.59
2019-05-30T08:14:42.231Z,28.69
2019-05-30T08:15:44.005Z,29.40
2019-05-30T08:16:41.422Z,29.50
2019-05-30T08:17:44.292Z,29.80
2019-05-30T08:18:41.394Z,29.39
2019-05-30T08:19:41.385Z,31.00
2019-05-30T08:20:52.391Z,31.00
2019-05-30T08:21:41.377Z,32.70
2019-05-30T08:22:41.356Z,31.99
2019-05-30T08:23:41.334Z,30.36
2019-05-30T08:24:41.327Z,28.75
2019-05-30T08:25:41.318Z,28.55
2019-05-30T08:26:41.320Z,26.34
2019-05-30T08:27:41.298Z,28.97
2019-05-30T08:28:42.699Z,27.87
2019-05-30T08:29:41.269Z,29.69
2019-05-30T08:30:41.269Z,29.57
2019-05-30T08:31:41.301Z,30.68
2019-05-30T08:32:41.242Z,29.57
2019-05-30T08:33:41.221Z,31.18
2019-05-30T08:34:41.235Z,28.65
2019-05-30T08:35:49.080Z,29.56
2019-05-30T08:36:42.200Z,28.85
2019-05-30T08:37:41.185Z,28.85
2019-05-30T08:38:41.188Z,29.56
2019-05-30T08:39:41.163Z,29.75
2019-05-30T08:40:41.161Z,30.05
2019-05-30T08:41:41.190Z,28.54
2019-05-30T08:42:41.120Z,29.35
2019-05-30T08:43:41.112Z,29.75
2019-05-30T08:44:41.124Z,29.95
2019-05-30T08:45:41.091Z,29.44
2019-05-30T08:46:41.099Z,28.14
2019-05-30T08:47:41.102Z,29.35
2019-05-30T08:48:41.061Z,30.96
2019-05-30T08:49:41.051Z,29.35
2019-05-30T08:50:44.511Z,27.03
2019-05-30T08:51:51.703Z,28.34
2019-05-30T08:52:41.181Z,27.12
2019-05-30T08:53:41.023Z,26.22
2019-05-30T08:54:40.994Z,26.13
2019-05-30T08:55:40.985Z,27.83
2019-05-30T08:56:40.974Z,28.23
2019-05-30T08:57:41.225Z,28.03
2019-05-30T08:58:41.003Z,28.64
2019-05-30T08:59:44.512Z,26.12
2019-05-30T09:00:40.936Z,26.82
2019-05-30T09:01:42.113Z,25.71
2019-05-30T09:02:41.113Z,24.80
2019-05-30T09:03:42.034Z,27.23
2019-05-30T09:04:41.996Z,26.52
2019-05-30T09:05:58.178Z,25.51
2019-05-30T09:06:42.100Z,26.21
2019-05-30T09:07:42.726Z,24.99
2019-05-30T09:08:41.926Z,25.11
2019-05-30T09:09:42.152Z,23.80
2019-05-30T09:10:41.013Z,26.32
2019-05-30T09:11:40.830Z,27.12
2019-05-30T09:12:42.782Z,26.41
2019-05-30T09:13:40.799Z,26.61
2019-05-30T09:14:41.187Z,27.62
2019-05-30T09:15:41.115Z,26.81
2019-05-30T09:16:40.758Z,27.22
2019-05-30T09:17:42.488Z,26.60
2019-05-30T09:18:41.582Z,27.91
2019-05-30T09:19:41.477Z,27.70
2019-05-30T09:20:41.944Z,27.20
2019-05-30T09:21:41.455Z,26.70
2019-05-30T09:22:51.024Z,26.40
2019-05-30T09:23:42.107Z,26.70
2019-05-30T09:24:41.988Z,26.39
2019-05-30T09:25:41.519Z,28.00
2019-05-30T09:26:44.212Z,28.20
2019-05-30T09:27:42.945Z,27.09
2019-05-30T09:28:40.809Z,26.89
2019-05-30T09:29:41.673Z,27.39
2019-05-30T09:30:41.566Z,29.21
2019-05-30T09:31:41.197Z,26.97
2019-05-30T09:32:41.383Z,27.37
2019-05-30T09:33:40.965Z,27.58
2019-05-30T09:34:42.035Z,28.18
2019-05-30T09:35:41.444Z,26.97
2019-05-30T09:36:40.999Z,26.37
2019-05-30T09:37:41.766Z,26.89
2019-05-30T09:38:41.716Z,28.00
2019-05-30T09:39:41.493Z,27.89
2019-05-30T09:40:40.883Z,28.30
2019-05-30T09:41:42.057Z,29.19
2019-05-30T09:42:41.220Z,29.09
2019-05-30T09:43:41.576Z,26.27
2019-05-30T09:44:40.981Z,27.39
2019-05-30T09:45:41.248Z,25.68
2019-05-30T09:46:41.465Z,24.57
2019-05-30T09:47:42.992Z,27.80
2019-05-30T09:48:41.506Z,26.39
2019-05-30T09:49:41.530Z,27.39
2019-05-30T09:50:41.994Z,27.49
2019-05-30T09:53:50.493Z,25.57
2019-05-30T10:15:40.171Z,26.08
2019-05-30T10:24:51.191Z,27.15
2019-05-30T10:46:39.796Z,25.96
2019-05-30T10:54:39.719Z,23.34
2019-05-30T10:55:50.129Z,23.75
2019-05-30T10:59:39.665Z,26.77
2019-05-30T11:17:39.474Z,27.76
2019-05-30T11:26:50.940Z,26.80
2019-05-30T11:30:39.350Z,28.42
2019-05-30T11:32:39.360Z,27.42
2019-05-30T11:34:39.305Z,28.34
2019-05-30T11:38:39.254Z,28.42
2019-05-30T11:48:39.155Z,28.60
2019-05-30T11:57:49.984Z,28.03
2019-05-30T11:59:39.025Z,28.52
2019-05-30T12:19:38.811Z,26.61
2019-05-30T12:27:38.774Z,25.70
2019-05-30T12:28:48.928Z,25.81
2019-05-30T12:30:54.447Z,26.41
2019-05-30T12:31:39.678Z,26.10
2019-05-30T12:33:38.677Z,26.20
2019-05-30T12:34:38.657Z,25.49
2019-05-30T12:35:38.636Z,25.60
2019-05-30T12:36:38.636Z,25.89
2019-05-30T12:37:53.495Z,25.18
2019-05-30T12:38:39.623Z,27.00
2019-05-30T12:39:38.613Z,27.49
2019-05-30T12:40:38.577Z,25.07
2019-05-30T12:41:38.578Z,24.08
2019-05-30T12:42:38.568Z,24.49
2019-05-30T12:43:38.565Z,24.39
2019-05-30T12:44:38.550Z,25.61
2019-05-30T12:45:38.530Z,24.80
2019-05-30T12:46:38.543Z,25.61
2019-05-30T12:47:38.511Z,24.91
2019-05-30T12:48:38.510Z,25.22
2019-05-30T12:49:38.503Z,25.93
2019-05-30T12:50:38.481Z,25.83
2019-05-30T12:51:38.471Z,25.73
2019-05-30T12:53:38.459Z,25.42
2019-05-30T12:54:38.452Z,25.42
2019-05-30T12:55:38.430Z,26.13
2019-05-30T12:56:38.412Z,25.73
2019-05-30T12:57:38.400Z,27.04
2019-05-30T12:58:38.394Z,26.64
2019-05-30T12:59:48.875Z,26.32
2019-05-30T13:01:38.364Z,25.82
2019-05-30T13:02:38.344Z,26.12
2019-05-30T13:03:38.335Z,26.22
2019-05-30T13:05:38.331Z,26.42
2019-05-30T13:06:38.305Z,26.02
2019-05-30T13:07:38.297Z,25.92
2019-05-30T13:08:38.298Z,26.32
2019-05-30T13:09:38.278Z,25.41
2019-05-30T13:10:38.265Z,25.41
2019-05-30T13:11:38.258Z,25.12
2019-05-30T13:12:38.257Z,25.23
2019-05-30T13:14:38.228Z,25.74
2019-05-30T13:15:38.218Z,25.84
2019-05-30T13:16:38.196Z,25.54
2019-05-30T13:17:38.240Z,26.26
2019-05-30T13:18:38.202Z,26.65
2019-05-30T13:19:38.166Z,26.85
2019-05-30T13:20:38.157Z,26.85
2019-05-30T13:21:38.162Z,25.84
2019-05-30T13:22:38.126Z,27.05
2019-05-30T13:24:38.133Z,26.53
2019-05-30T13:25:38.111Z,27.44
2019-05-30T13:26:38.120Z,26.72
2019-05-30T13:27:38.074Z,26.52
2019-05-30T13:28:38.084Z,26.82
2019-05-30T13:29:38.048Z,26.53
2019-05-30T13:30:49.193Z,26.64
2019-05-30T13:32:38.063Z,27.12
2019-05-30T13:33:38.652Z,27.53
2019-05-30T13:34:38.013Z,25.92
2019-05-30T13:35:38.002Z,25.93
2019-05-30T13:37:37.998Z,27.14
2019-05-30T13:38:37.974Z,26.73
2019-05-30T13:39:37.956Z,28.05
2019-05-30T13:40:37.945Z,27.84
2019-05-30T13:41:37.932Z,29.06
2019-05-30T13:42:37.957Z,28.03
2019-05-30T13:43:38.004Z,28.34
2019-05-30T13:44:37.935Z,27.93
2019-05-30T13:45:37.894Z,27.51
2019-05-30T13:46:37.873Z,26.31
2019-05-30T13:47:37.879Z,26.02
2019-05-30T13:48:37.917Z,26.02
2019-05-30T13:49:37.854Z,26.32
2019-05-30T13:50:37.846Z,26.43
2019-05-30T13:51:37.824Z,26.64
2019-05-30T13:52:37.839Z,27.64
2019-05-30T13:53:37.810Z,27.04
2019-05-30T13:55:37.797Z,26.25
2019-05-30T13:56:37.778Z,27.15
2019-05-30T13:57:37.757Z,27.15
2019-05-30T13:58:37.758Z,27.66
2019-05-30T13:59:37.778Z,27.45
2019-05-30T14:00:37.779Z,27.36
2019-05-30T14:01:48.819Z,26.93
2019-05-30T14:03:37.714Z,25.93
2019-05-30T14:04:37.680Z,26.64
2019-05-30T14:05:37.689Z,25.93
2019-05-30T14:06:37.662Z,25.34
2019-05-30T14:07:38.176Z,26.34
2019-05-30T14:09:37.646Z,27.15
2019-05-30T14:10:37.633Z,25.74
2019-05-30T14:11:37.635Z,26.43
2019-05-30T14:12:37.611Z,24.82
2019-05-30T14:13:37.591Z,25.13
2019-05-30T14:14:37.592Z,26.65
2019-05-30T14:15:37.574Z,27.04
2019-05-30T14:16:37.551Z,25.52
2019-05-30T14:17:37.543Z,25.12
2019-05-30T14:18:37.533Z,25.34
2019-05-30T14:19:37.526Z,24.93
2019-05-30T14:20:37.535Z,25.24
2019-05-30T14:21:37.494Z,25.55
2019-05-30T14:22:37.490Z,24.64
2019-05-30T14:23:37.485Z,25.95
2019-05-30T14:24:37.474Z,26.35
2019-05-30T14:26:37.469Z,25.36
2019-05-30T14:27:37.444Z,25.36
2019-05-30T14:28:37.423Z,26.17
2019-05-30T14:29:37.471Z,26.17
2019-05-30T14:30:37.411Z,25.26
2019-05-30T14:31:37.416Z,25.96
2019-05-30T14:32:47.520Z,26.37
2019-05-30T14:34:37.358Z,25.26
2019-05-30T14:35:37.366Z,25.26
2019-05-30T14:36:37.348Z,25.05
2019-05-30T14:37:37.330Z,24.25
2019-05-30T14:38:37.326Z,24.25
2019-05-30T14:39:37.311Z,24.65
2019-05-30T14:40:37.300Z,24.35
2019-05-30T14:41:37.295Z,23.54
2019-05-30T14:42:37.286Z,23.64
2019-05-30T14:43:37.260Z,22.73
2019-05-30T14:44:37.266Z,22.44
2019-05-30T14:45:37.253Z,22.54
2019-05-30T14:46:37.257Z,23.05
2019-05-30T14:47:37.233Z,22.85
2019-05-30T14:48:37.224Z,22.44
2019-05-30T14:49:37.200Z,23.44
2019-05-30T14:50:37.200Z,23.44
2019-05-30T14:51:37.181Z,22.13
2019-05-30T14:52:37.188Z,22.23
2019-05-30T14:53:37.173Z,23.34
2019-05-30T14:54:37.164Z,22.73
2019-05-30T14:55:37.140Z,23.03
2019-05-30T14:56:37.162Z,24.55
2019-05-30T14:57:37.137Z,24.44
2019-05-30T14:58:37.104Z,23.83
2019-05-30T14:59:37.093Z,24.54
2019-05-30T15:00:37.096Z,23.93
2019-05-30T15:01:37.086Z,23.43
2019-05-30T15:02:37.075Z,22.82
2019-05-30T15:04:37.055Z,22.83
2019-05-30T15:05:37.029Z,23.44
2019-05-30T15:06:37.017Z,24.25
2019-05-30T15:07:37.057Z,24.25
2019-05-30T15:08:37.007Z,23.44
2019-05-30T15:09:36.998Z,22.83
2019-05-30T15:10:36.999Z,22.53
2019-05-30T15:11:36.979Z,22.53
2019-05-30T15:12:36.971Z,22.63
2019-05-30T15:13:37.280Z,23.54
2019-05-30T15:14:36.928Z,24.15
2019-05-30T15:15:36.931Z,24.75
2019-05-30T15:16:36.917Z,24.45
2019-05-30T15:17:36.900Z,24.15
2019-05-30T15:18:36.888Z,24.96
2019-05-30T15:19:36.930Z,24.76
2019-05-30T15:20:36.869Z,24.96
2019-05-30T15:21:36.872Z,24.35
2019-05-30T15:22:36.861Z,24.35
2019-05-30T15:23:36.839Z,23.64
2019-05-30T15:24:36.830Z,23.03
2019-05-30T15:25:36.819Z,22.83
2019-05-30T15:26:36.812Z,22.33
2019-05-30T15:27:36.819Z,21.52
2019-05-30T15:28:36.803Z,21.03
2019-05-30T15:29:36.802Z,21.53
2019-05-30T15:30:36.761Z,20.92
2019-05-30T15:31:36.764Z,21.43
2019-05-30T15:32:36.763Z,20.82
2019-05-30T15:33:36.732Z,21.53
2019-05-30T15:35:36.715Z,21.12
2019-05-30T15:36:36.704Z,21.03
2019-05-30T15:37:36.693Z,21.03
2019-05-30T15:38:36.707Z,21.11
2019-05-30T15:39:36.666Z,21.22
2019-05-30T15:40:36.736Z,21.01
2019-05-30T15:41:36.659Z,21.22
2019-05-30T15:42:36.635Z,21.32
2019-05-30T15:43:36.628Z,21.62
2019-05-30T15:44:36.629Z,22.63
2019-05-30T15:45:36.607Z,21.62
2019-05-30T15:46:36.607Z,22.13
2019-05-30T15:47:36.598Z,22.83
2019-05-30T15:48:36.580Z,23.24
2019-05-30T15:49:36.571Z,23.54
2019-05-30T15:50:36.617Z,22.93
2019-05-30T15:51:36.539Z,23.35
2019-05-30T15:52:36.537Z,23.35
2019-05-30T15:53:36.518Z,23.96
2019-05-30T15:54:36.535Z,23.94
2019-05-30T15:55:36.512Z,24.05
2019-05-30T15:56:36.568Z,24.25
2019-05-30T15:57:36.499Z,23.94
2019-05-30T15:58:36.485Z,23.74
2019-05-30T15:59:36.470Z,24.05
2019-05-30T16:00:37.133Z,24.55
2019-05-30T16:01:36.428Z,24.96
2019-05-30T16:02:36.453Z,25.26
2019-05-30T16:03:36.433Z,25.87
2019-05-30T16:04:36.415Z,26.27
2019-05-30T16:06:36.397Z,26.67
2019-05-30T16:07:36.374Z,27.39
2019-05-30T16:08:36.376Z,27.19
2019-05-30T16:09:46.762Z,27.70
2019-05-30T16:10:37.357Z,28.00
2019-05-30T16:11:36.328Z,28.00
2019-05-30T16:12:36.331Z,28.22
2019-05-30T16:13:36.307Z,28.22
2019-05-30T16:14:36.286Z,28.31
2019-05-30T16:15:36.286Z,28.62
2019-05-30T16:16:40.263Z,29.03
2019-05-30T16:17:36.318Z,29.44
2019-05-30T16:18:36.261Z,29.34
2019-05-30T16:19:36.245Z,29.74
2019-05-30T16:20:36.238Z,29.83
2019-05-30T16:21:36.229Z,29.83
2019-05-30T16:22:36.215Z,29.53
2019-05-30T16:23:36.217Z,29.53
2019-05-30T16:24:36.187Z,30.04
2019-05-30T16:25:36.193Z,30.24
2019-05-30T16:26:36.189Z,30.44
2019-05-30T16:27:36.184Z,30.74
2019-05-30T16:28:36.194Z,30.74
2019-05-30T16:29:36.135Z,30.94
2019-05-30T16:30:36.120Z,30.84
2019-05-30T16:31:36.109Z,31.05
2019-05-30T16:32:36.098Z,31.25
2019-05-30T16:33:36.120Z,30.93
2019-05-30T16:34:36.112Z,31.25
2019-05-30T16:35:36.080Z,31.35
2019-05-30T16:37:36.058Z,31.65
2019-05-30T16:38:36.050Z,31.76
2019-05-30T16:39:36.032Z,31.96
2019-05-30T16:40:36.010Z,31.96
2019-05-30T16:41:36.045Z,32.07
2019-05-30T16:42:36.005Z,31.77
2019-05-30T16:43:36.004Z,31.26
2019-05-30T16:44:35.995Z,31.37
2019-05-30T16:45:35.977Z,31.67
2019-05-30T16:46:35.959Z,31.67
2019-05-30T16:47:35.963Z,31.87
2019-05-30T16:48:35.930Z,32.17
2019-05-30T16:49:35.923Z,32.58
2019-05-30T16:50:35.905Z,32.07
2019-05-30T16:51:35.894Z,32.29
2019-05-30T16:52:35.886Z,32.48
2019-05-30T16:53:35.877Z,32.58
2019-05-30T16:54:35.916Z,32.39
2019-05-30T16:55:35.868Z,31.99
2019-05-30T16:56:35.847Z,32.20
2019-05-30T16:57:35.825Z,32.71
2019-05-30T16:58:35.827Z,33.22
2019-05-30T16:59:35.837Z,33.12
2019-05-30T17:00:35.814Z,33.12
2019-05-30T17:01:35.881Z,33.22
2019-05-30T17:02:35.800Z,33.12
2019-05-30T17:03:35.773Z,33.12
2019-05-30T17:04:35.757Z,32.81
2019-05-30T17:05:35.746Z,32.91
2019-05-30T17:06:35.747Z,32.71
2019-05-30T17:08:36.024Z,32.71
2019-05-30T17:09:35.741Z,33.13
2019-05-30T17:10:35.710Z,32.93
2019-05-30T17:11:35.683Z,33.03
2019-05-30T17:12:35.690Z,33.03
2019-05-30T17:13:35.672Z,33.23
2019-05-30T17:14:35.660Z,33.33
2019-05-30T17:15:35.651Z,33.03
2019-05-30T17:16:35.662Z,33.33
2019-05-30T17:17:35.619Z,33.04
2019-05-30T17:18:35.620Z,33.55
2019-05-30T17:19:39.030Z,33.04
2019-05-30T17:20:35.588Z,33.25
2019-05-30T17:21:35.584Z,33.03
2019-05-30T17:22:35.559Z,33.33
2019-05-30T17:23:35.564Z,33.44
2019-05-30T17:24:35.537Z,33.45
2019-05-30T17:25:35.552Z,34.06
2019-05-30T17:26:35.573Z,34.36
2019-05-30T17:27:35.890Z,33.75
2019-05-30T17:28:35.514Z,33.55
2019-05-30T17:29:35.493Z,33.47
2019-05-30T17:30:35.491Z,33.77
2019-05-30T17:31:35.461Z,33.67
2019-05-30T17:32:35.460Z,34.08
2019-05-30T17:33:35.441Z,33.57
2019-05-30T17:34:35.448Z,33.37
2019-05-30T17:35:35.424Z,33.55
2019-05-30T17:36:35.402Z,33.16
2019-05-30T17:37:35.444Z,33.26
2019-05-30T17:39:35.388Z,33.26
2019-05-30T17:40:44.146Z,33.47
2019-05-30T17:41:36.354Z,33.67
2019-05-30T17:42:35.355Z,33.87
2019-05-30T17:43:35.344Z,33.97
2019-05-30T17:44:35.323Z,33.77
2019-05-30T17:45:35.325Z,33.89
2019-05-30T17:46:35.326Z,34.09
2019-05-30T17:47:35.306Z,33.99
2019-05-30T17:48:35.306Z,34.09
2019-05-30T17:49:35.278Z,33.38
2019-05-30T17:50:35.277Z,33.48
2019-05-30T17:51:35.264Z,33.58
2019-05-30T17:52:35.257Z,33.28
2019-05-30T17:53:35.258Z,33.48
2019-05-30T17:54:35.224Z,33.48
2019-05-30T17:55:35.227Z,33.38
2019-05-30T17:56:35.197Z,33.38
2019-05-30T17:57:35.186Z,33.58
2019-05-30T17:58:35.183Z,33.60
2019-05-30T17:59:35.163Z,33.70
2019-05-30T18:00:35.145Z,33.40
2019-05-30T18:01:35.158Z,33.41
2019-05-30T18:02:35.148Z,33.51
2019-05-30T18:03:35.139Z,33.51
2019-05-30T18:04:35.106Z,33.62
2019-05-30T18:05:37.217Z,33.62
2019-05-30T18:06:35.088Z,33.92
2019-05-30T18:07:35.076Z,34.14
2019-05-30T18:08:35.136Z,34.44